sensor_id;sensor_type;location;lat;lon;timestamp;P1;durP1;ratioP1;P2;durP2;ratioP2
5890;SDS011;2971;52.420;7.080;2024-03-02T00:00:19;4.23;;;3.83;;
5890;SDS011;2971;52.420;7.080;2024-03-02T00:02:46;5.00;;;4.60;;
5890;SDS011;2971;52.420;7.080;2024-03-02T00:05:15;5.23;;;4.53;;
5890;SDS011;2971;52.420;7.080;2024-03-02T00:07:43;4.80;;;4.30;;
5890;SDS011;2971;52.420;7.080;2024-03-02T00:10:10;4.87;;;4.37;;
5890;SDS011;2971;52.420;7.080;2024-03-02T00:12:36;4.77;;;4.27;;
5890;SDS011;2971;52.420;7.080;2024-03-02T00:15:03;5.07;;;4.30;;
5890;SDS011;2971;52.420;7.080;2024-03-02T00:17:30;4.50;;;4.10;;
5890;SDS011;2971;52.420;7.080;2024-03-02T00:19:56;4.57;;;4.17;;
5890;SDS011;2971;52.420;7.080;2024-03-02T00:22:23;5.27;;;4.77;;
5890;SDS011;2971;52.420;7.080;2024-03-02T00:24:48;5.47;;;4.63;;
5890;SDS011;2971;52.420;7.080;2024-03-02T00:27:14;5.30;;;4.77;;
5890;SDS011;2971;52.420;7.080;2024-03-02T00:29:40;5.27;;;4.70;;
5890;SDS011;2971;52.420;7.080;2024-03-02T00:32:09;5.80;;;4.90;;
5890;SDS011;2971;52.420;7.080;2024-03-02T00:34:38;5.10;;;4.60;;
5890;SDS011;2971;52.420;7.080;2024-03-02T00:37:03;5.30;;;4.80;;
5890;SDS011;2971;52.420;7.080;2024-03-02T00:39:30;5.67;;;4.73;;
5890;SDS011;2971;52.420;7.080;2024-03-02T00:41:56;5.77;;;5.13;;
5890;SDS011;2971;52.420;7.080;2024-03-02T00:44:22;5.40;;;4.83;;
5890;SDS011;2971;52.420;7.080;2024-03-02T00:46:50;7.03;;;5.00;;
5890;SDS011;2971;52.420;7.080;2024-03-02T00:49:17;5.67;;;5.03;;
5890;SDS011;2971;52.420;7.080;2024-03-02T00:51:46;5.60;;;4.90;;
5890;SDS011;2971;52.420;7.080;2024-03-02T00:54:15;7.23;;;5.10;;
5890;SDS011;2971;52.420;7.080;2024-03-02T00:56:45;5.73;;;5.07;;
5890;SDS011;2971;52.420;7.080;2024-03-02T00:59:12;5.20;;;4.70;;
5890;SDS011;2971;52.420;7.080;2024-03-02T01:01:38;6.53;;;5.57;;
5890;SDS011;2971;52.420;7.080;2024-03-02T01:04:03;5.83;;;5.07;;
5890;SDS011;2971;52.420;7.080;2024-03-02T01:06:30;5.57;;;4.77;;
5890;SDS011;2971;52.420;7.080;2024-03-02T01:08:55;5.67;;;4.97;;
5890;SDS011;2971;52.420;7.080;2024-03-02T01:11:21;5.90;;;5.17;;
5890;SDS011;2971;52.420;7.080;2024-03-02T01:13:48;5.80;;;5.20;;
5890;SDS011;2971;52.420;7.080;2024-03-02T01:16:14;6.37;;;5.10;;
5890;SDS011;2971;52.420;7.080;2024-03-02T01:18:41;5.50;;;5.00;;
5890;SDS011;2971;52.420;7.080;2024-03-02T01:21:06;5.77;;;5.03;;
5890;SDS011;2971;52.420;7.080;2024-03-02T01:23:32;5.50;;;5.00;;
5890;SDS011;2971;52.420;7.080;2024-03-02T01:25:58;6.70;;;4.77;;
5890;SDS011;2971;52.420;7.080;2024-03-02T01:28:23;5.53;;;5.00;;
5890;SDS011;2971;52.420;7.080;2024-03-02T01:30:50;6.50;;;4.73;;
5890;SDS011;2971;52.420;7.080;2024-03-02T01:33:16;6.40;;;4.80;;
5890;SDS011;2971;52.420;7.080;2024-03-02T01:35:41;5.73;;;4.57;;
5890;SDS011;2971;52.420;7.080;2024-03-02T01:38:07;5.43;;;4.93;;
5890;SDS011;2971;52.420;7.080;2024-03-02T01:40:33;5.17;;;4.63;;
5890;SDS011;2971;52.420;7.080;2024-03-02T01:42:59;5.30;;;4.80;;
5890;SDS011;2971;52.420;7.080;2024-03-02T01:45:24;4.93;;;4.53;;
5890;SDS011;2971;52.420;7.080;2024-03-02T01:47:51;5.13;;;4.67;;
5890;SDS011;2971;52.420;7.080;2024-03-02T01:50:24;5.40;;;4.67;;
5890;SDS011;2971;52.420;7.080;2024-03-02T01:52:50;5.00;;;4.50;;
5890;SDS011;2971;52.420;7.080;2024-03-02T01:55:15;5.27;;;4.77;;
5890;SDS011;2971;52.420;7.080;2024-03-02T01:57:41;6.03;;;5.13;;
5890;SDS011;2971;52.420;7.080;2024-03-02T02:00:08;5.60;;;4.67;;
5890;SDS011;2971;52.420;7.080;2024-03-02T02:02:35;5.30;;;4.80;;
5890;SDS011;2971;52.420;7.080;2024-03-02T02:05:02;5.87;;;4.50;;
5890;SDS011;2971;52.420;7.080;2024-03-02T02:07:28;5.30;;;4.80;;
5890;SDS011;2971;52.420;7.080;2024-03-02T02:09:54;4.60;;;4.20;;
5890;SDS011;2971;52.420;7.080;2024-03-02T02:12:19;4.90;;;4.50;;
5890;SDS011;2971;52.420;7.080;2024-03-02T02:14:48;5.27;;;4.67;;
5890;SDS011;2971;52.420;7.080;2024-03-02T02:17:14;4.87;;;4.43;;
5890;SDS011;2971;52.420;7.080;2024-03-02T02:19:40;5.20;;;4.70;;
5890;SDS011;2971;52.420;7.080;2024-03-02T02:22:07;5.40;;;4.90;;
5890;SDS011;2971;52.420;7.080;2024-03-02T02:24:32;6.50;;;5.17;;
5890;SDS011;2971;52.420;7.080;2024-03-02T02:26:58;5.10;;;4.63;;
5890;SDS011;2971;52.420;7.080;2024-03-02T02:29:23;4.97;;;4.57;;
5890;SDS011;2971;52.420;7.080;2024-03-02T02:31:49;5.30;;;4.80;;
5890;SDS011;2971;52.420;7.080;2024-03-02T02:34:14;6.53;;;4.83;;
5890;SDS011;2971;52.420;7.080;2024-03-02T02:36:40;5.20;;;4.63;;
5890;SDS011;2971;52.420;7.080;2024-03-02T02:39:11;5.30;;;4.80;;
5890;SDS011;2971;52.420;7.080;2024-03-02T02:41:38;5.23;;;4.73;;
5890;SDS011;2971;52.420;7.080;2024-03-02T02:44:04;5.57;;;4.90;;
5890;SDS011;2971;52.420;7.080;2024-03-02T02:46:29;5.67;;;4.90;;
5890;SDS011;2971;52.420;7.080;2024-03-02T02:48:55;4.97;;;4.47;;
5890;SDS011;2971;52.420;7.080;2024-03-02T02:51:21;5.13;;;4.20;;
5890;SDS011;2971;52.420;7.080;2024-03-02T02:53:46;5.40;;;4.90;;
5890;SDS011;2971;52.420;7.080;2024-03-02T02:56:13;5.50;;;4.70;;
5890;SDS011;2971;52.420;7.080;2024-03-02T02:58:39;5.67;;;4.57;;
5890;SDS011;2971;52.420;7.080;2024-03-02T03:01:05;5.10;;;4.60;;
5890;SDS011;2971;52.420;7.080;2024-03-02T03:03:30;5.23;;;4.70;;
5890;SDS011;2971;52.420;7.080;2024-03-02T03:05:56;5.00;;;4.60;;
5890;SDS011;2971;52.420;7.080;2024-03-02T03:08:22;5.60;;;4.77;;
5890;SDS011;2971;52.420;7.080;2024-03-02T03:10:48;6.47;;;5.30;;
5890;SDS011;2971;52.420;7.080;2024-03-02T03:13:16;5.60;;;4.30;;
5890;SDS011;2971;52.420;7.080;2024-03-02T03:15:41;5.60;;;4.97;;
5890;SDS011;2971;52.420;7.080;2024-03-02T03:18:07;6.27;;;5.33;;
5890;SDS011;2971;52.420;7.080;2024-03-02T03:20:33;5.63;;;4.77;;
5890;SDS011;2971;52.420;7.080;2024-03-02T03:22:58;5.57;;;5.07;;
5890;SDS011;2971;52.420;7.080;2024-03-02T03:25:24;5.87;;;4.80;;
5890;SDS011;2971;52.420;7.080;2024-03-02T03:27:50;5.60;;;5.00;;
5890;SDS011;2971;52.420;7.080;2024-03-02T03:30:19;5.33;;;4.83;;
5890;SDS011;2971;52.420;7.080;2024-03-02T03:32:44;5.33;;;4.83;;
5890;SDS011;2971;52.420;7.080;2024-03-02T03:35:10;5.73;;;5.17;;
5890;SDS011;2971;52.420;7.080;2024-03-02T03:37:37;5.53;;;5.03;;
5890;SDS011;2971;52.420;7.080;2024-03-02T03:40:03;6.07;;;5.13;;
5890;SDS011;2971;52.420;7.080;2024-03-02T03:42:35;5.50;;;5.00;;
5890;SDS011;2971;52.420;7.080;2024-03-02T03:45:00;5.67;;;5.17;;
5890;SDS011;2971;52.420;7.080;2024-03-02T03:47:27;7.63;;;5.00;;
5890;SDS011;2971;52.420;7.080;2024-03-02T03:49:53;5.20;;;4.70;;
5890;SDS011;2971;52.420;7.080;2024-03-02T03:52:18;5.03;;;4.53;;
5890;SDS011;2971;52.420;7.080;2024-03-02T03:54:44;5.27;;;4.77;;
5890;SDS011;2971;52.420;7.080;2024-03-02T03:57:09;6.23;;;5.10;;
5890;SDS011;2971;52.420;7.080;2024-03-02T03:59:35;5.40;;;4.90;;
5890;SDS011;2971;52.420;7.080;2024-03-02T04:02:02;5.83;;;5.10;;
5890;SDS011;2971;52.420;7.080;2024-03-02T04:04:29;5.50;;;4.70;;
5890;SDS011;2971;52.420;7.080;2024-03-02T04:06:55;5.40;;;4.70;;
5890;SDS011;2971;52.420;7.080;2024-03-02T04:09:21;6.47;;;5.23;;
5890;SDS011;2971;52.420;7.080;2024-03-02T04:11:46;5.80;;;5.17;;
5890;SDS011;2971;52.420;7.080;2024-03-02T04:14:12;5.70;;;5.10;;
5890;SDS011;2971;52.420;7.080;2024-03-02T04:16:38;4.87;;;4.37;;
5890;SDS011;2971;52.420;7.080;2024-03-02T04:19:04;5.37;;;4.80;;
5890;SDS011;2971;52.420;7.080;2024-03-02T04:21:31;6.00;;;4.90;;
5890;SDS011;2971;52.420;7.080;2024-03-02T04:23:56;5.60;;;5.00;;
5890;SDS011;2971;52.420;7.080;2024-03-02T04:26:25;6.80;;;5.23;;
5890;SDS011;2971;52.420;7.080;2024-03-02T04:28:51;5.33;;;4.83;;
5890;SDS011;2971;52.420;7.080;2024-03-02T04:31:16;6.37;;;5.07;;
5890;SDS011;2971;52.420;7.080;2024-03-02T04:33:42;5.93;;;5.33;;
5890;SDS011;2971;52.420;7.080;2024-03-02T04:36:08;5.63;;;5.03;;
5890;SDS011;2971;52.420;7.080;2024-03-02T04:38:36;5.83;;;5.30;;
5890;SDS011;2971;52.420;7.080;2024-03-02T04:41:02;5.97;;;5.27;;
5890;SDS011;2971;52.420;7.080;2024-03-02T04:43:28;6.90;;;5.10;;
5890;SDS011;2971;52.420;7.080;2024-03-02T04:45:54;6.00;;;5.30;;
5890;SDS011;2971;52.420;7.080;2024-03-02T04:48:19;5.50;;;5.00;;
5890;SDS011;2971;52.420;7.080;2024-03-02T04:50:47;6.03;;;5.43;;
5890;SDS011;2971;52.420;7.080;2024-03-02T04:53:12;5.97;;;5.43;;
5890;SDS011;2971;52.420;7.080;2024-03-02T04:55:40;6.40;;;5.23;;
5890;SDS011;2971;52.420;7.080;2024-03-02T04:58:05;6.00;;;5.30;;
5890;SDS011;2971;52.420;7.080;2024-03-02T05:00:31;7.20;;;4.90;;
5890;SDS011;2971;52.420;7.080;2024-03-02T05:02:57;6.73;;;5.63;;
5890;SDS011;2971;52.420;7.080;2024-03-02T05:05:23;5.83;;;5.30;;
5890;SDS011;2971;52.420;7.080;2024-03-02T05:07:48;8.40;;;5.97;;
5890;SDS011;2971;52.420;7.080;2024-03-02T05:10:14;5.80;;;5.13;;
5890;SDS011;2971;52.420;7.080;2024-03-02T05:12:41;5.93;;;5.37;;
5890;SDS011;2971;52.420;7.080;2024-03-02T05:15:09;5.47;;;4.97;;
5890;SDS011;2971;52.420;7.080;2024-03-02T05:17:35;5.60;;;5.10;;
5890;SDS011;2971;52.420;7.080;2024-03-02T05:20:01;6.03;;;5.00;;
5890;SDS011;2971;52.420;7.080;2024-03-02T05:22:27;6.57;;;5.20;;
5890;SDS011;2971;52.420;7.080;2024-03-02T05:24:52;6.47;;;5.47;;
5890;SDS011;2971;52.420;7.080;2024-03-02T05:27:18;6.33;;;5.23;;
5890;SDS011;2971;52.420;7.080;2024-03-02T05:29:45;6.10;;;5.50;;
5890;SDS011;2971;52.420;7.080;2024-03-02T05:32:11;6.30;;;5.27;;
5890;SDS011;2971;52.420;7.080;2024-03-02T05:34:36;6.70;;;5.73;;
5890;SDS011;2971;52.420;7.080;2024-03-02T05:37:02;6.90;;;6.20;;
5890;SDS011;2971;52.420;7.080;2024-03-02T05:39:27;6.30;;;5.67;;
5890;SDS011;2971;52.420;7.080;2024-03-02T05:41:53;6.17;;;5.57;;
5890;SDS011;2971;52.420;7.080;2024-03-02T05:44:18;6.93;;;6.10;;
5890;SDS011;2971;52.420;7.080;2024-03-02T05:46:46;6.87;;;5.90;;
5890;SDS011;2971;52.420;7.080;2024-03-02T05:49:11;6.67;;;5.67;;
5890;SDS011;2971;52.420;7.080;2024-03-02T05:51:37;6.77;;;5.40;;
5890;SDS011;2971;52.420;7.080;2024-03-02T05:54:03;6.97;;;5.37;;
5890;SDS011;2971;52.420;7.080;2024-03-02T05:56:28;6.33;;;5.60;;
5890;SDS011;2971;52.420;7.080;2024-03-02T05:58:54;7.40;;;5.80;;
5890;SDS011;2971;52.420;7.080;2024-03-02T06:01:37;6.27;;;5.67;;
5890;SDS011;2971;52.420;7.080;2024-03-02T06:04:04;6.67;;;5.80;;
5890;SDS011;2971;52.420;7.080;2024-03-02T06:06:30;7.03;;;5.77;;
5890;SDS011;2971;52.420;7.080;2024-03-02T06:08:57;6.23;;;5.63;;
5890;SDS011;2971;52.420;7.080;2024-03-02T06:11:23;6.47;;;5.80;;
5890;SDS011;2971;52.420;7.080;2024-03-02T06:13:49;6.80;;;6.10;;
5890;SDS011;2971;52.420;7.080;2024-03-02T06:16:15;6.80;;;6.07;;
5890;SDS011;2971;52.420;7.080;2024-03-02T06:18:41;6.60;;;5.90;;
5890;SDS011;2971;52.420;7.080;2024-03-02T06:21:08;6.77;;;5.80;;
5890;SDS011;2971;52.420;7.080;2024-03-02T06:23:33;6.67;;;6.00;;
5890;SDS011;2971;52.420;7.080;2024-03-02T06:26:00;6.17;;;5.57;;
5890;SDS011;2971;52.420;7.080;2024-03-02T06:28:25;6.20;;;5.60;;
5890;SDS011;2971;52.420;7.080;2024-03-02T06:30:51;5.90;;;5.40;;
5890;SDS011;2971;52.420;7.080;2024-03-02T06:33:17;6.50;;;5.83;;
5890;SDS011;2971;52.420;7.080;2024-03-02T06:35:42;6.50;;;5.80;;
5890;SDS011;2971;52.420;7.080;2024-03-02T06:38:09;6.47;;;5.70;;
5890;SDS011;2971;52.420;7.080;2024-03-02T06:40:35;7.37;;;6.07;;
5890;SDS011;2971;52.420;7.080;2024-03-02T06:43:02;8.90;;;7.70;;
5890;SDS011;2971;52.420;7.080;2024-03-02T06:45:28;10.43;;;9.33;;
5890;SDS011;2971;52.420;7.080;2024-03-02T06:47:55;8.70;;;7.37;;
5890;SDS011;2971;52.420;7.080;2024-03-02T06:50:21;7.43;;;6.40;;
5890;SDS011;2971;52.420;7.080;2024-03-02T06:52:47;8.10;;;5.90;;
5890;SDS011;2971;52.420;7.080;2024-03-02T06:55:14;7.63;;;6.00;;
5890;SDS011;2971;52.420;7.080;2024-03-02T06:57:39;6.50;;;5.77;;
5890;SDS011;2971;52.420;7.080;2024-03-02T07:00:05;6.77;;;5.90;;
5890;SDS011;2971;52.420;7.080;2024-03-02T07:02:33;6.60;;;5.90;;
5890;SDS011;2971;52.420;7.080;2024-03-02T07:04:59;6.50;;;5.50;;
5890;SDS011;2971;52.420;7.080;2024-03-02T07:07:25;7.20;;;5.93;;
5890;SDS011;2971;52.420;7.080;2024-03-02T07:09:50;6.43;;;5.70;;
5890;SDS011;2971;52.420;7.080;2024-03-02T07:12:17;7.23;;;5.60;;
5890;SDS011;2971;52.420;7.080;2024-03-02T07:14:43;6.37;;;5.67;;
5890;SDS011;2971;52.420;7.080;2024-03-02T07:17:20;6.67;;;5.63;;
5890;SDS011;2971;52.420;7.080;2024-03-02T07:19:46;7.37;;;5.87;;
5890;SDS011;2971;52.420;7.080;2024-03-02T07:22:11;6.43;;;5.83;;
5890;SDS011;2971;52.420;7.080;2024-03-02T07:24:40;7.07;;;5.87;;
5890;SDS011;2971;52.420;7.080;2024-03-02T07:27:06;6.57;;;5.97;;
5890;SDS011;2971;52.420;7.080;2024-03-02T07:29:33;8.27;;;6.27;;
5890;SDS011;2971;52.420;7.080;2024-03-02T07:31:59;6.47;;;5.87;;
5890;SDS011;2971;52.420;7.080;2024-03-02T07:34:24;7.40;;;6.10;;
5890;SDS011;2971;52.420;7.080;2024-03-02T07:36:50;6.17;;;5.57;;
5890;SDS011;2971;52.420;7.080;2024-03-02T07:39:16;6.43;;;5.47;;
5890;SDS011;2971;52.420;7.080;2024-03-02T07:41:41;6.13;;;5.53;;
5890;SDS011;2971;52.420;7.080;2024-03-02T07:44:07;6.13;;;5.53;;
5890;SDS011;2971;52.420;7.080;2024-03-02T07:46:34;6.63;;;5.67;;
5890;SDS011;2971;52.420;7.080;2024-03-02T07:48:59;6.57;;;5.87;;
5890;SDS011;2971;52.420;7.080;2024-03-02T07:51:25;7.10;;;5.97;;
5890;SDS011;2971;52.420;7.080;2024-03-02T07:53:51;6.97;;;6.10;;
5890;SDS011;2971;52.420;7.080;2024-03-02T07:56:17;6.37;;;5.70;;
5890;SDS011;2971;52.420;7.080;2024-03-02T07:58:47;6.67;;;6.07;;
5890;SDS011;2971;52.420;7.080;2024-03-02T08:01:14;6.90;;;6.20;;
5890;SDS011;2971;52.420;7.080;2024-03-02T08:03:41;6.10;;;5.50;;
5890;SDS011;2971;52.420;7.080;2024-03-02T08:06:07;6.70;;;5.47;;
5890;SDS011;2971;52.420;7.080;2024-03-02T08:08:33;6.10;;;5.13;;
5890;SDS011;2971;52.420;7.080;2024-03-02T08:10:58;6.23;;;5.23;;
5890;SDS011;2971;52.420;7.080;2024-03-02T08:13:24;5.87;;;5.27;;
5890;SDS011;2971;52.420;7.080;2024-03-02T08:15:50;6.40;;;4.90;;
5890;SDS011;2971;52.420;7.080;2024-03-02T08:18:15;7.70;;;5.23;;
5890;SDS011;2971;52.420;7.080;2024-03-02T08:20:42;6.93;;;4.80;;
5890;SDS011;2971;52.420;7.080;2024-03-02T08:23:08;6.10;;;5.17;;
5890;SDS011;2971;52.420;7.080;2024-03-02T08:25:33;5.27;;;4.77;;
5890;SDS011;2971;52.420;7.080;2024-03-02T08:27:59;5.90;;;4.47;;
5890;SDS011;2971;52.420;7.080;2024-03-02T08:30:24;5.77;;;4.90;;
5890;SDS011;2971;52.420;7.080;2024-03-02T08:32:50;5.67;;;4.70;;
5890;SDS011;2971;52.420;7.080;2024-03-02T08:35:15;7.97;;;4.53;;
5890;SDS011;2971;52.420;7.080;2024-03-02T08:37:43;5.03;;;4.30;;
5890;SDS011;2971;52.420;7.080;2024-03-02T08:40:09;5.20;;;4.70;;
5890;SDS011;2971;52.420;7.080;2024-03-02T08:42:35;4.43;;;4.03;;
5890;SDS011;2971;52.420;7.080;2024-03-02T08:45:01;5.00;;;4.23;;
5890;SDS011;2971;52.420;7.080;2024-03-02T08:47:27;7.37;;;4.90;;
5890;SDS011;2971;52.420;7.080;2024-03-02T08:49:52;5.63;;;4.47;;
5890;SDS011;2971;52.420;7.080;2024-03-02T08:52:18;5.57;;;4.53;;
5890;SDS011;2971;52.420;7.080;2024-03-02T08:54:45;5.23;;;4.70;;
5890;SDS011;2971;52.420;7.080;2024-03-02T08:57:10;4.60;;;4.20;;
5890;SDS011;2971;52.420;7.080;2024-03-02T08:59:36;5.57;;;4.20;;
5890;SDS011;2971;52.420;7.080;2024-03-02T09:02:02;5.80;;;3.93;;
5890;SDS011;2971;52.420;7.080;2024-03-02T09:04:27;4.33;;;3.77;;
5890;SDS011;2971;52.420;7.080;2024-03-02T09:06:53;5.47;;;3.80;;
5890;SDS011;2971;52.420;7.080;2024-03-02T09:09:19;5.47;;;3.50;;
5890;SDS011;2971;52.420;7.080;2024-03-02T09:11:46;4.40;;;3.40;;
5890;SDS011;2971;52.420;7.080;2024-03-02T09:14:12;4.23;;;3.40;;
5890;SDS011;2971;52.420;7.080;2024-03-02T09:16:40;4.67;;;3.50;;
5890;SDS011;2971;52.420;7.080;2024-03-02T09:19:05;5.33;;;3.20;;
5890;SDS011;2971;52.420;7.080;2024-03-02T09:21:31;4.23;;;3.10;;
5890;SDS011;2971;52.420;7.080;2024-03-02T09:23:56;4.23;;;3.50;;
5890;SDS011;2971;52.420;7.080;2024-03-02T09:26:22;5.93;;;3.37;;
5890;SDS011;2971;52.420;7.080;2024-03-02T09:28:51;4.60;;;3.67;;
5890;SDS011;2971;52.420;7.080;2024-03-02T09:31:16;4.60;;;3.70;;
5890;SDS011;2971;52.420;7.080;2024-03-02T09:33:42;5.80;;;3.80;;
5890;SDS011;2971;52.420;7.080;2024-03-02T09:36:16;4.70;;;3.60;;
5890;SDS011;2971;52.420;7.080;2024-03-02T09:38:42;5.00;;;3.13;;
5890;SDS011;2971;52.420;7.080;2024-03-02T09:41:08;3.77;;;3.17;;
5890;SDS011;2971;52.420;7.080;2024-03-02T09:43:33;4.43;;;2.90;;
5890;SDS011;2971;52.420;7.080;2024-03-02T09:46:00;3.53;;;2.60;;
5890;SDS011;2971;52.420;7.080;2024-03-02T09:48:26;4.27;;;2.60;;
5890;SDS011;2971;52.420;7.080;2024-03-02T09:50:52;4.33;;;2.50;;
5890;SDS011;2971;52.420;7.080;2024-03-02T09:53:17;3.23;;;2.40;;
5890;SDS011;2971;52.420;7.080;2024-03-02T09:55:45;4.67;;;2.93;;
5890;SDS011;2971;52.420;7.080;2024-03-02T09:58:11;5.10;;;2.47;;
5890;SDS011;2971;52.420;7.080;2024-03-02T10:00:37;2.90;;;2.20;;
5890;SDS011;2971;52.420;7.080;2024-03-02T10:03:04;4.63;;;2.60;;
5890;SDS011;2971;52.420;7.080;2024-03-02T10:05:30;3.73;;;2.40;;
5890;SDS011;2971;52.420;7.080;2024-03-02T10:07:59;3.53;;;2.80;;
5890;SDS011;2971;52.420;7.080;2024-03-02T10:10:26;3.63;;;2.30;;
5890;SDS011;2971;52.420;7.080;2024-03-02T10:13:03;4.10;;;2.40;;
5890;SDS011;2971;52.420;7.080;2024-03-02T10:15:30;3.30;;;2.50;;
5890;SDS011;2971;52.420;7.080;2024-03-02T10:17:55;4.10;;;2.53;;
5890;SDS011;2971;52.420;7.080;2024-03-02T10:20:23;3.80;;;2.70;;
5890;SDS011;2971;52.420;7.080;2024-03-02T10:22:49;3.47;;;2.63;;
5890;SDS011;2971;52.420;7.080;2024-03-02T10:25:27;2.73;;;2.37;;
5890;SDS011;2971;52.420;7.080;2024-03-02T10:27:56;5.07;;;3.00;;
5890;SDS011;2971;52.420;7.080;2024-03-02T10:30:22;3.63;;;2.80;;
5890;SDS011;2971;52.420;7.080;2024-03-02T10:32:48;4.30;;;3.23;;
5890;SDS011;2971;52.420;7.080;2024-03-02T10:35:14;5.63;;;2.70;;
5890;SDS011;2971;52.420;7.080;2024-03-02T10:37:41;3.87;;;2.10;;
5890;SDS011;2971;52.420;7.080;2024-03-02T10:40:08;3.40;;;2.23;;
5890;SDS011;2971;52.420;7.080;2024-03-02T10:42:36;3.17;;;2.30;;
5890;SDS011;2971;52.420;7.080;2024-03-02T10:45:03;4.40;;;2.40;;
5890;SDS011;2971;52.420;7.080;2024-03-02T10:47:30;4.07;;;2.70;;
5890;SDS011;2971;52.420;7.080;2024-03-02T10:49:56;4.17;;;2.37;;
5890;SDS011;2971;52.420;7.080;2024-03-02T10:52:24;3.73;;;2.23;;
5890;SDS011;2971;52.420;7.080;2024-03-02T10:54:51;4.03;;;2.10;;
5890;SDS011;2971;52.420;7.080;2024-03-02T10:57:17;4.83;;;2.00;;
5890;SDS011;2971;52.420;7.080;2024-03-02T10:59:47;4.07;;;2.17;;
5890;SDS011;2971;52.420;7.080;2024-03-02T11:02:17;3.30;;;2.20;;
5890;SDS011;2971;52.420;7.080;2024-03-02T11:04:42;3.93;;;1.83;;
5890;SDS011;2971;52.420;7.080;2024-03-02T11:07:09;2.93;;;1.80;;
5890;SDS011;2971;52.420;7.080;2024-03-02T11:09:36;2.37;;;1.47;;
5890;SDS011;2971;52.420;7.080;2024-03-02T11:12:06;3.07;;;1.73;;
5890;SDS011;2971;52.420;7.080;2024-03-02T11:14:37;4.10;;;2.00;;
5890;SDS011;2971;52.420;7.080;2024-03-02T11:17:04;4.23;;;1.83;;
5890;SDS011;2971;52.420;7.080;2024-03-02T11:19:30;3.53;;;2.10;;
5890;SDS011;2971;52.420;7.080;2024-03-02T11:21:56;4.80;;;1.97;;
5890;SDS011;2971;52.420;7.080;2024-03-02T11:24:28;3.80;;;2.00;;
5890;SDS011;2971;52.420;7.080;2024-03-02T11:26:58;5.43;;;2.30;;
5890;SDS011;2971;52.420;7.080;2024-03-02T11:32:15;3.30;;;1.90;;
5890;SDS011;2971;52.420;7.080;2024-03-02T11:34:42;3.27;;;2.07;;
5890;SDS011;2971;52.420;7.080;2024-03-02T11:37:10;3.03;;;1.80;;
5890;SDS011;2971;52.420;7.080;2024-03-02T11:39:36;3.43;;;1.80;;
5890;SDS011;2971;52.420;7.080;2024-03-02T11:42:05;2.97;;;2.00;;
5890;SDS011;2971;52.420;7.080;2024-03-02T11:44:32;5.57;;;2.30;;
5890;SDS011;2971;52.420;7.080;2024-03-02T11:46:59;4.50;;;1.90;;
5890;SDS011;2971;52.420;7.080;2024-03-02T11:49:36;4.37;;;2.07;;
5890;SDS011;2971;52.420;7.080;2024-03-02T11:52:06;3.50;;;2.17;;
5890;SDS011;2971;52.420;7.080;2024-03-02T11:54:32;3.00;;;1.90;;
5890;SDS011;2971;52.420;7.080;2024-03-02T11:57:01;2.47;;;1.90;;
5890;SDS011;2971;52.420;7.080;2024-03-02T11:59:28;2.87;;;2.00;;
5890;SDS011;2971;52.420;7.080;2024-03-02T12:01:54;4.53;;;1.70;;
5890;SDS011;2971;52.420;7.080;2024-03-02T12:04:21;3.53;;;2.10;;
5890;SDS011;2971;52.420;7.080;2024-03-02T12:06:47;4.50;;;2.30;;
5890;SDS011;2971;52.420;7.080;2024-03-02T12:09:13;3.33;;;2.10;;
5890;SDS011;2971;52.420;7.080;2024-03-02T12:11:40;2.80;;;1.90;;
5890;SDS011;2971;52.420;7.080;2024-03-02T12:14:10;4.60;;;2.47;;
5890;SDS011;2971;52.420;7.080;2024-03-02T12:16:37;3.10;;;2.10;;
5890;SDS011;2971;52.420;7.080;2024-03-02T12:19:04;3.43;;;2.10;;
5890;SDS011;2971;52.420;7.080;2024-03-02T12:21:32;3.23;;;2.07;;
5890;SDS011;2971;52.420;7.080;2024-03-02T12:23:57;3.17;;;2.20;;
5890;SDS011;2971;52.420;7.080;2024-03-02T12:26:23;3.43;;;2.40;;
5890;SDS011;2971;52.420;7.080;2024-03-02T12:28:49;3.50;;;2.10;;
5890;SDS011;2971;52.420;7.080;2024-03-02T12:31:14;3.70;;;2.20;;
5890;SDS011;2971;52.420;7.080;2024-03-02T12:33:40;3.73;;;3.07;;
5890;SDS011;2971;52.420;7.080;2024-03-02T12:36:09;3.53;;;2.50;;
5890;SDS011;2971;52.420;7.080;2024-03-02T12:38:36;3.67;;;2.57;;
5890;SDS011;2971;52.420;7.080;2024-03-02T12:41:01;3.33;;;2.37;;
5890;SDS011;2971;52.420;7.080;2024-03-02T12:43:29;3.50;;;2.30;;
5890;SDS011;2971;52.420;7.080;2024-03-02T12:45:55;3.27;;;2.40;;
5890;SDS011;2971;52.420;7.080;2024-03-02T12:48:21;3.23;;;2.17;;
5890;SDS011;2971;52.420;7.080;2024-03-02T12:50:47;3.63;;;2.10;;
5890;SDS011;2971;52.420;7.080;2024-03-02T12:53:14;4.30;;;2.70;;
5890;SDS011;2971;52.420;7.080;2024-03-02T12:55:42;2.93;;;1.97;;
5890;SDS011;2971;52.420;7.080;2024-03-02T12:58:15;4.23;;;2.33;;
5890;SDS011;2971;52.420;7.080;2024-03-02T13:00:41;2.67;;;2.30;;
5890;SDS011;2971;52.420;7.080;2024-03-02T13:03:07;3.40;;;2.40;;
5890;SDS011;2971;52.420;7.080;2024-03-02T13:05:33;2.63;;;2.20;;
5890;SDS011;2971;52.420;7.080;2024-03-02T13:07:58;4.23;;;2.40;;
5890;SDS011;2971;52.420;7.080;2024-03-02T13:10:24;3.57;;;2.50;;
5890;SDS011;2971;52.420;7.080;2024-03-02T13:12:52;3.27;;;2.20;;
5890;SDS011;2971;52.420;7.080;2024-03-02T13:15:17;3.73;;;2.60;;
5890;SDS011;2971;52.420;7.080;2024-03-02T13:17:44;3.47;;;2.43;;
5890;SDS011;2971;52.420;7.080;2024-03-02T13:20:10;3.27;;;2.40;;
5890;SDS011;2971;52.420;7.080;2024-03-02T13:22:36;3.33;;;2.67;;
5890;SDS011;2971;52.420;7.080;2024-03-02T13:25:01;4.40;;;2.60;;
5890;SDS011;2971;52.420;7.080;2024-03-02T13:27:30;3.73;;;2.43;;
5890;SDS011;2971;52.420;7.080;2024-03-02T13:30:01;3.73;;;2.33;;
5890;SDS011;2971;52.420;7.080;2024-03-02T13:32:26;4.50;;;2.40;;
5890;SDS011;2971;52.420;7.080;2024-03-02T13:34:52;3.17;;;2.10;;
5890;SDS011;2971;52.420;7.080;2024-03-02T13:37:18;2.97;;;2.37;;
5890;SDS011;2971;52.420;7.080;2024-03-02T13:39:43;3.03;;;2.50;;
5890;SDS011;2971;52.420;7.080;2024-03-02T13:42:09;3.03;;;2.33;;
5890;SDS011;2971;52.420;7.080;2024-03-02T13:44:35;2.30;;;2.10;;
5890;SDS011;2971;52.420;7.080;2024-03-02T13:47:03;4.83;;;2.50;;
5890;SDS011;2971;52.420;7.080;2024-03-02T13:49:29;2.57;;;2.00;;
5890;SDS011;2971;52.420;7.080;2024-03-02T13:51:59;4.43;;;1.90;;
5890;SDS011;2971;52.420;7.080;2024-03-02T13:54:28;3.40;;;2.00;;
5890;SDS011;2971;52.420;7.080;2024-03-02T13:56:53;3.20;;;2.23;;
5890;SDS011;2971;52.420;7.080;2024-03-02T13:59:19;2.93;;;2.27;;
5890;SDS011;2971;52.420;7.080;2024-03-02T14:01:45;2.37;;;2.00;;
5890;SDS011;2971;52.420;7.080;2024-03-02T14:04:12;3.97;;;2.17;;
5890;SDS011;2971;52.420;7.080;2024-03-02T14:06:37;3.17;;;2.10;;
5890;SDS011;2971;52.420;7.080;2024-03-02T14:09:03;4.30;;;2.47;;
5890;SDS011;2971;52.420;7.080;2024-03-02T14:11:28;2.77;;;2.10;;
5890;SDS011;2971;52.420;7.080;2024-03-02T14:13:54;4.07;;;2.20;;
5890;SDS011;2971;52.420;7.080;2024-03-02T14:16:19;3.33;;;2.30;;
5890;SDS011;2971;52.420;7.080;2024-03-02T14:18:45;2.83;;;1.87;;
5890;SDS011;2971;52.420;7.080;2024-03-02T14:21:12;3.37;;;2.00;;
5890;SDS011;2971;52.420;7.080;2024-03-02T14:23:38;3.17;;;2.10;;
5890;SDS011;2971;52.420;7.080;2024-03-02T14:26:03;3.40;;;2.00;;
5890;SDS011;2971;52.420;7.080;2024-03-02T14:28:29;2.47;;;1.90;;
5890;SDS011;2971;52.420;7.080;2024-03-02T14:30:54;2.13;;;1.93;;
5890;SDS011;2971;52.420;7.080;2024-03-02T14:33:20;2.57;;;1.93;;
5890;SDS011;2971;52.420;7.080;2024-03-02T14:35:46;2.80;;;2.10;;
5890;SDS011;2971;52.420;7.080;2024-03-02T14:38:13;3.40;;;2.10;;
5890;SDS011;2971;52.420;7.080;2024-03-02T14:40:39;3.13;;;2.43;;
5890;SDS011;2971;52.420;7.080;2024-03-02T14:43:04;2.17;;;1.80;;
5890;SDS011;2971;52.420;7.080;2024-03-02T14:45:30;2.20;;;1.93;;
5890;SDS011;2971;52.420;7.080;2024-03-02T14:47:55;2.77;;;1.97;;
5890;SDS011;2971;52.420;7.080;2024-03-02T14:50:24;4.10;;;1.93;;
5890;SDS011;2971;52.420;7.080;2024-03-02T14:52:50;3.17;;;2.00;;
5890;SDS011;2971;52.420;7.080;2024-03-02T14:55:17;2.43;;;1.93;;
5890;SDS011;2971;52.420;7.080;2024-03-02T14:57:42;2.17;;;1.90;;
5890;SDS011;2971;52.420;7.080;2024-03-02T15:00:08;2.37;;;2.00;;
5890;SDS011;2971;52.420;7.080;2024-03-02T15:02:36;2.43;;;1.97;;
5890;SDS011;2971;52.420;7.080;2024-03-02T15:05:02;2.00;;;1.80;;
5890;SDS011;2971;52.420;7.080;2024-03-02T15:07:28;2.37;;;2.00;;
5890;SDS011;2971;52.420;7.080;2024-03-02T15:09:53;2.87;;;1.90;;
5890;SDS011;2971;52.420;7.080;2024-03-02T15:12:21;4.70;;;2.17;;